Time;durP1;ratioP1;P1;durP2;ratioP2;P2;SDS_P1;SDS_P2;PMS_P1;PMS_P2;Temp;Humidity;BMP_temperature;BMP_pressure;BME280_temperature;BME280_humidity;BME280_pressure;Samples;Min_cycle;Max_cycle;Signal;HPM_P1;HPM_P2
2021/04/23 00:01:57;;;;;;;11.65;5.05;;;15.20;59.30;;;;;;5042121;28;20135;-60
2021/04/23 00:04:23;;;;;;;10.05;4.43;;;15.20;59.40;;;;;;5041802;28;20411;-60
2021/04/23 00:06:53;;;;;;;14.40;4.35;;;15.10;59.40;;;;;;5024149;28;20033;-59
2021/04/23 00:09:21;;;;;;;8.40;4.38;;;15.10;59.40;;;;;;5040917;28;20120;-60
2021/04/23 00:11:54;;;;;;;11.20;4.22;;;15.10;59.50;;;;;;5023204;28;20044;-60
2021/04/23 00:14:21;;;;;;;11.98;4.03;;;15.10;59.50;;;;;;5022872;28;20125;-60
2021/04/23 00:16:47;;;;;;;9.88;4.20;;;15.00;59.50;;;;;;5043156;28;20451;-60
2021/04/23 00:19:15;;;;;;;11.35;4.50;;;15.00;59.50;;;;;;5037667;28;20035;-60
2021/04/23 00:21:41;;;;;;;7.47;4.10;;;15.00;59.50;;;;;;5037249;28;20060;-60
2021/04/23 00:24:06;;;;;;;7.20;3.80;;;15.00;59.50;;;;;;5023427;28;20425;-60
2021/04/23 00:26:32;;;;;;;11.88;4.30;;;15.00;59.50;;;;;;5038772;28;20131;-59
2021/04/23 00:28:58;;;;;;;13.77;4.43;;;15.00;59.40;;;;;;5041134;28;20024;-61
2021/04/23 00:31:23;;;;;;;15.57;4.00;;;15.00;59.50;;;;;;5041871;28;20124;-60
2021/04/23 00:33:49;;;;;;;7.47;4.25;;;15.00;59.50;;;;;;5023822;28;20025;-60
2021/04/23 00:36:14;;;;;;;8.10;4.68;;;14.90;59.60;;;;;;5022815;28;20563;-59
2021/04/23 00:38:40;;;;;;;11.50;4.43;;;14.90;59.50;;;;;;5040387;28;20041;-60
2021/04/23 00:41:14;;;;;;;9.30;4.82;;;14.90;59.60;;;;;;5038502;28;20038;-60
2021/04/23 00:43:44;;;;;;;8.02;4.82;;;14.80;59.60;;;;;;5009787;28;20028;-60
2021/04/23 00:46:10;;;;;;;14.68;4.53;;;14.90;59.70;;;;;;5024755;28;20053;-60
2021/04/23 00:48:40;;;;;;;6.85;4.90;;;14.80;59.70;;;;;;5006882;28;20047;-60
2021/04/23 00:51:07;;;;;;;9.52;4.63;;;14.80;59.60;;;;;;5040532;28;20674;-60
2021/04/23 00:53:34;;;;;;;8.60;4.40;;;14.70;59.60;;;;;;5041123;28;20187;-60
2021/04/23 00:56:02;;;;;;;11.25;4.78;;;14.70;59.60;;;;;;5041972;28;20029;-60
2021/04/23 00:58:28;;;;;;;8.15;4.70;;;14.70;59.60;;;;;;5007745;28;20103;-60
2021/04/23 01:00:58;;;;;;;6.25;4.85;;;14.70;59.60;;;;;;5017560;28;20507;-61
2021/04/23 01:03:23;;;;;;;15.32;5.30;;;14.70;59.60;;;;;;5005558;28;20029;-61
2021/04/23 01:05:49;;;;;;;8.65;5.82;;;14.60;59.60;;;;;;5018347;28;20051;-59
2021/04/23 01:08:15;;;;;;;9.02;6.28;;;14.60;59.60;;;;;;5033647;28;20021;-60
2021/04/23 01:10:40;;;;;;;12.80;7.47;;;14.60;59.50;;;;;;5041795;28;20033;-60
2021/04/23 01:13:06;;;;;;;11.40;6.25;;;14.60;59.40;;;;;;5023225;28;20391;-59
2021/04/23 01:15:32;;;;;;;8.70;6.20;;;14.50;59.50;;;;;;5006954;28;20032;-60
2021/04/23 01:17:57;;;;;;;10.82;6.13;;;14.50;59.50;;;;;;5023516;28;20444;-60
2021/04/23 01:20:23;;;;;;;12.50;6.70;;;14.50;59.50;;;;;;5038856;28;20028;-61
2021/04/23 01:22:49;;;;;;;14.02;6.63;;;14.50;59.50;;;;;;5023959;28;20432;-60
2021/04/23 01:25:14;;;;;;;12.02;6.20;;;14.50;59.50;;;;;;5023433;28;20473;-60
2021/04/23 01:27:40;;;;;;;14.43;5.80;;;14.40;59.40;;;;;;5034936;28;20017;-59
2021/04/23 01:30:10;;;;;;;10.60;6.75;;;14.40;59.60;;;;;;5037534;28;20041;-60
2021/04/23 01:32:36;;;;;;;8.27;5.45;;;14.40;59.50;;;;;;5037754;28;20431;-60
2021/04/23 01:35:04;;;;;;;10.07;5.80;;;14.40;59.60;;;;;;5023767;28;20013;-61
2021/04/23 01:37:30;;;;;;;10.95;5.93;;;14.40;59.50;;;;;;5034263;28;20037;-60
2021/04/23 01:39:56;;;;;;;9.73;6.40;;;14.30;59.40;;;;;;5040746;28;20017;-60
2021/04/23 01:42:22;;;;;;;15.13;6.35;;;14.30;59.50;;;;;;5041763;28;20025;-60
2021/04/23 01:44:48;;;;;;;12.25;5.85;;;14.30;59.30;;;;;;5040080;28;20052;-60
2021/04/23 01:47:13;;;;;;;7.43;5.50;;;14.30;59.30;;;;;;5006815;28;20409;-60
2021/04/23 01:49:39;;;;;;;9.27;5.72;;;14.30;59.20;;;;;;5002227;28;20645;-62
2021/04/23 01:52:08;;;;;;;14.00;5.68;;;14.20;59.30;;;;;;5001196;28;20034;-60
2021/04/23 01:54:34;;;;;;;12.88;6.68;;;14.20;59.30;;;;;;5001035;28;20034;-61
2021/04/23 01:56:59;;;;;;;12.60;7.72;;;14.20;59.30;;;;;;5000659;28;20042;-60
2021/04/23 01:59:25;;;;;;;10.00;6.45;;;14.10;59.20;;;;;;5001168;28;20551;-60
2021/04/23 02:01:51;;;;;;;14.00;5.93;;;14.10;59.30;;;;;;5001410;28;20030;-60
2021/04/23 02:04:16;;;;;;;10.50;6.00;;;14.10;59.40;;;;;;5003681;28;20042;-59
2021/04/23 02:06:44;;;;;;;9.48;5.95;;;14.10;59.40;;;;;;4999260;28;20647;-59
2021/04/23 02:09:09;;;;;;;9.80;6.53;;;14.10;59.40;;;;;;4995148;28;20125;-60
2021/04/23 02:11:36;;;;;;;9.73;5.97;;;14.10;59.40;;;;;;4999276;28;20541;-60
2021/04/23 02:14:02;;;;;;;10.55;5.60;;;14.00;59.30;;;;;;5002603;28;20030;-59
2021/04/23 02:16:27;;;;;;;10.38;5.80;;;14.00;59.30;;;;;;4997852;28;20393;-60
2021/04/23 02:18:53;;;;;;;7.72;5.70;;;14.00;59.40;;;;;;4972736;28;20041;-60
2021/04/23 02:21:19;;;;;;;9.30;5.80;;;13.90;59.40;;;;;;4981476;28;20448;-61
2021/04/23 02:23:46;;;;;;;9.77;5.28;;;13.90;59.40;;;;;;4997112;28;20042;-60
2021/04/23 02:26:11;;;;;;;9.27;6.15;;;14.00;59.40;;;;;;4992800;28;20029;-61
2021/04/23 02:28:37;;;;;;;9.13;5.28;;;13.90;59.20;;;;;;4994522;28;20084;-60
2021/04/23 02:31:10;;;;;;;9.40;4.95;;;13.90;59.30;;;;;;4997505;28;20101;-61
2021/04/23 02:33:35;;;;;;;8.65;5.45;;;13.90;59.30;;;;;;4994124;28;20030;-60
2021/04/23 02:36:01;;;;;;;11.43;5.38;;;13.80;59.30;;;;;;4995930;28;20050;-60
2021/04/23 02:38:27;;;;;;;10.50;5.80;;;13.80;59.40;;;;;;4977612;28;20053;-60
2021/04/23 02:40:53;;;;;;;9.70;5.53;;;13.80;59.30;;;;;;4980010;28;20452;-59
2021/04/23 02:43:26;;;;;;;8.63;5.45;;;13.70;59.30;;;;;;4981348;28;20096;-59
2021/04/23 02:45:52;;;;;;;12.43;5.50;;;13.70;59.40;;;;;;4989414;28;20131;-59
2021/04/23 02:48:18;;;;;;;10.15;5.55;;;13.70;59.20;;;;;;5039819;28;20380;-59
2021/04/23 02:50:47;;;;;;;12.25;5.93;;;13.70;59.30;;;;;;5003590;28;20106;-60
2021/04/23 02:53:12;;;;;;;9.00;6.28;;;13.60;59.20;;;;;;5020001;28;20361;-60
2021/04/23 02:55:38;;;;;;;9.80;6.38;;;13.60;59.30;;;;;;5037560;28;20029;-59
2021/04/23 02:58:06;;;;;;;13.43;6.38;;;13.60;59.40;;;;;;5040371;28;20075;-59
2021/04/23 03:00:37;;;;;;;10.65;6.20;;;13.60;59.30;;;;;;5005496;28;20040;-59
2021/04/23 03:03:04;;;;;;;10.95;6.10;;;13.60;59.40;;;;;;5005658;28;20728;-60
2021/04/23 03:05:29;;;;;;;10.80;6.20;;;13.60;59.40;;;;;;5035629;28;20067;-59
2021/04/23 03:07:57;;;;;;;9.13;6.03;;;13.50;59.30;;;;;;5005126;28;20033;-60
2021/04/23 03:10:25;;;;;;;9.20;5.95;;;13.50;59.40;;;;;;5039389;28;20037;-60
2021/04/23 03:12:54;;;;;;;11.00;6.10;;;13.40;59.30;;;;;;5040541;28;20163;-60
2021/04/23 03:15:22;;;;;;;11.07;6.30;;;13.40;59.40;;;;;;5019552;28;20040;-60
2021/04/23 03:17:48;;;;;;;8.18;6.00;;;13.40;59.50;;;;;;5021279;28;20021;-59
2021/04/23 03:20:17;;;;;;;9.30;4.93;;;13.40;59.50;;;;;;5021431;28;20033;-60
2021/04/23 03:22:43;;;;;;;9.60;5.35;;;13.40;59.50;;;;;;5038971;28;20086;-59
2021/04/23 03:25:10;;;;;;;10.23;5.50;;;13.30;59.40;;;;;;5022751;28;20024;-59
2021/04/23 03:27:35;;;;;;;9.27;5.60;;;13.30;59.50;;;;;;5003810;28;20025;-59
2021/04/23 03:30:01;;;;;;;9.15;5.53;;;13.30;59.40;;;;;;5037261;28;20082;-60
2021/04/23 03:32:27;;;;;;;8.40;6.03;;;13.30;59.40;;;;;;5021595;28;20021;-60
2021/04/23 03:34:53;;;;;;;10.05;5.78;;;13.30;59.40;;;;;;5023365;28;20077;-60
2021/04/23 03:37:18;;;;;;;9.57;5.70;;;13.20;59.40;;;;;;5022992;28;20067;-59
2021/04/23 03:39:43;;;;;;;8.25;5.55;;;13.20;59.40;;;;;;5005970;28;20498;-60
2021/04/23 03:42:09;;;;;;;9.57;5.32;;;13.20;59.40;;;;;;5040231;28;20370;-60
2021/04/23 03:44:35;;;;;;;7.22;4.75;;;13.20;59.50;;;;;;5038862;28;20021;-60
2021/04/23 03:47:00;;;;;;;7.95;5.25;;;13.10;59.50;;;;;;5023706;28;20067;-60
2021/04/23 03:49:25;;;;;;;7.53;5.32;;;13.10;59.40;;;;;;5038899;28;20059;-59
2021/04/23 03:51:51;;;;;;;9.18;5.25;;;13.10;59.50;;;;;;5040741;28;20043;-60
2021/04/23 03:54:16;;;;;;;7.70;5.68;;;13.00;59.40;;;;;;5022539;28;21801;-60
2021/04/23 03:56:42;;;;;;;9.52;5.53;;;13.00;59.50;;;;;;5036720;28;20041;-60
2021/04/23 03:59:08;;;;;;;8.38;5.13;;;13.00;59.50;;;;;;5040956;28;20029;-60
2021/04/23 04:01:35;;;;;;;7.20;5.03;;;13.00;59.60;;;;;;5022751;28;20025;-59
2021/04/23 04:04:00;;;;;;;8.02;4.90;;;12.90;59.60;;;;;;5005039;28;20517;-60
2021/04/23 04:06:26;;;;;;;7.97;4.97;;;12.90;59.60;;;;;;5038995;28;20036;-60
2021/04/23 04:08:52;;;;;;;8.98;5.40;;;12.90;59.60;;;;;;4989323;28;20095;-60
2021/04/23 04:11:17;;;;;;;7.07;4.93;;;12.90;59.60;;;;;;5005811;28;20071;-60
2021/04/23 04:13:43;;;;;;;9.75;5.20;;;12.80;59.60;;;;;;5024194;28;20051;-59
2021/04/23 04:16:08;;;;;;;6.95;4.70;;;12.80;59.60;;;;;;5025261;28;20124;-59
2021/04/23 04:18:34;;;;;;;8.63;4.90;;;12.80;59.70;;;;;;5040808;28;20047;-60
2021/04/23 04:20:59;;;;;;;11.55;5.05;;;12.80;59.70;;;;;;5040792;28;20041;-60
2021/04/23 04:23:25;;;;;;;7.72;4.88;;;12.70;59.60;;;;;;5021834;28;20032;-61
2021/04/23 04:25:59;;;;;;;9.63;4.80;;;12.70;59.60;;;;;;5025330;28;20025;-60
2021/04/23 04:28:25;;;;;;;13.25;4.70;;;12.70;59.70;;;;;;5023177;28;20102;-60
2021/04/23 04:30:50;;;;;;;13.80;4.70;;;12.70;59.80;;;;;;5024524;28;20051;-59
2021/04/23 04:33:16;;;;;;;28.65;5.43;;;12.60;59.80;;;;;;5004971;28;20040;-59
2021/04/23 04:35:42;;;;;;;72.53;7.53;;;12.60;59.70;;;;;;5006929;28;20036;-61
2021/04/23 04:38:09;;;;;;;42.83;5.80;;;12.60;59.80;;;;;;5024958;28;20546;-60
2021/04/23 04:40:35;;;;;;;57.97;7.45;;;12.60;59.70;;;;;;5024982;28;20560;-60
2021/04/23 04:43:00;;;;;;;60.92;7.10;;;12.60;59.70;;;;;;5041991;28;20477;-59
2021/04/23 04:45:27;;;;;;;41.58;7.07;;;12.60;59.80;;;;;;5041450;28;20025;-60
2021/04/23 04:47:52;;;;;;;61.22;7.22;;;12.60;59.80;;;;;;5005825;28;20076;-60
2021/04/23 04:50:26;;;;;;;27.38;6.60;;;12.60;59.70;;;;;;5022385;28;20033;-60
2021/04/23 04:52:52;;;;;;;48.15;7.03;;;12.50;59.70;;;;;;5024932;28;20036;-60
2021/04/23 04:55:18;;;;;;;48.10;7.22;;;12.50;59.80;;;;;;5039139;28;20025;-60
2021/04/23 04:57:43;;;;;;;39.83;7.05;;;12.50;59.80;;;;;;5022594;28;20041;-59
2021/04/23 05:00:09;;;;;;;39.70;7.03;;;12.50;59.90;;;;;;5022273;28;20153;-60
2021/04/23 05:02:35;;;;;;;41.00;7.47;;;12.50;59.80;;;;;;5040891;28;20036;-60
2021/04/23 05:05:01;;;;;;;39.13;6.47;;;12.70;60.20;;;;;;5021511;28;20957;-59
2021/04/23 05:07:27;;;;;;;41.92;6.75;;;12.50;60.10;;;;;;5041182;28;20519;-59
2021/04/23 05:09:52;;;;;;;42.10;6.50;;;12.50;60.10;;;;;;5021264;28;20083;-60
2021/04/23 05:12:18;;;;;;;39.72;7.25;;;12.50;60.20;;;;;;5035872;28;20051;-60
2021/04/23 05:14:43;;;;;;;31.83;6.68;;;12.50;60.10;;;;;;5007878;28;20048;-60
2021/04/23 05:17:09;;;;;;;33.72;6.45;;;12.40;60.20;;;;;;5036632;28;20052;-60
2021/04/23 05:19:34;;;;;;;26.65;6.32;;;12.40;60.30;;;;;;5021542;28;20037;-59
2021/04/23 05:22:00;;;;;;;31.50;6.10;;;12.40;60.40;;;;;;5042181;28;20025;-60
2021/04/23 05:24:25;;;;;;;29.42;5.85;;;12.40;60.30;;;;;;5040530;28;20400;-59
2021/04/23 05:26:51;;;;;;;39.83;7.00;;;12.40;60.30;;;;;;5022532;28;20516;-60
2021/04/23 05:29:16;;;;;;;41.13;6.13;;;12.40;60.40;;;;;;5040672;28;20105;-59
2021/04/23 05:31:42;;;;;;;26.65;6.78;;;12.40;60.40;;;;;;5042920;28;20039;-59
2021/04/23 05:34:07;;;;;;;33.85;6.80;;;12.40;60.40;;;;;;5040672;28;20070;-60
2021/04/23 05:36:33;;;;;;;37.17;7.22;;;12.30;60.30;;;;;;5040922;28;20083;-60
2021/04/23 05:38:58;;;;;;;33.88;6.38;;;12.30;60.30;;;;;;5039486;28;20510;-59
2021/04/23 05:41:24;;;;;;;31.35;6.47;;;12.30;60.40;;;;;;5022561;28;20473;-59
2021/04/23 05:43:49;;;;;;;32.92;6.70;;;12.30;60.40;;;;;;5004559;28;20144;-60
2021/04/23 05:46:18;;;;;;;23.70;6.20;;;12.30;60.40;;;;;;5039154;28;20127;-60
2021/04/23 05:48:47;;;;;;;26.23;6.35;;;12.30;60.40;;;;;;5015692;28;20029;-60
2021/04/23 05:51:13;;;;;;;22.60;6.65;;;12.30;60.40;;;;;;5035707;28;20039;-60
2021/04/23 05:53:39;;;;;;;24.05;6.03;;;12.30;60.40;;;;;;5021696;28;20083;-60
2021/04/23 05:56:04;;;;;;;21.92;6.93;;;12.20;60.30;;;;;;5024489;28;20037;-60
2021/04/23 05:58:30;;;;;;;33.92;7.13;;;12.30;60.40;;;;;;5040791;28;20698;-59
2021/04/23 06:00:55;;;;;;;27.25;6.05;;;12.20;60.40;;;;;;5021781;28;20075;-60
2021/04/23 06:03:21;;;;;;;23.85;6.28;;;12.20;60.50;;;;;;5018145;28;20029;-62
2021/04/23 06:05:47;;;;;;;30.90;6.13;;;12.20;60.50;;;;;;5021941;28;20056;-60
2021/04/23 06:08:12;;;;;;;36.80;6.22;;;12.20;60.50;;;;;;5022959;28;20036;-62
2021/04/23 06:10:39;;;;;;;27.38;5.68;;;12.20;60.50;;;;;;5040773;28;20091;-59
2021/04/23 06:13:04;;;;;;;21.52;5.72;;;12.20;60.40;;;;;;5036838;28;20022;-59
2021/04/23 06:15:30;;;;;;;30.98;6.30;;;12.20;60.50;;;;;;5039615;28;20554;-62
2021/04/23 06:17:56;;;;;;;28.38;6.32;;;12.20;60.50;;;;;;5038423;28;20083;-59
2021/04/23 06:20:23;;;;;;;26.05;6.00;;;12.20;60.50;;;;;;5009957;28;20469;-61
2021/04/23 06:22:50;;;;;;;34.10;5.68;;;12.20;60.50;;;;;;5026102;28;20540;-61
2021/04/23 06:25:16;;;;;;;40.53;6.55;;;12.20;60.40;;;;;;5011659;28;20033;-61
2021/04/23 06:27:42;;;;;;;33.33;6.70;;;12.20;60.40;;;;;;5009443;28;20032;-61
2021/04/23 06:30:12;;;;;;;48.22;6.95;;;12.20;60.40;;;;;;5007594;28;20044;-61
2021/04/23 06:32:41;;;;;;;36.75;6.72;;;12.20;60.30;;;;;;5026486;28;20227;-61
2021/04/23 06:35:08;;;;;;;34.15;7.00;;;12.20;60.30;;;;;;5025391;28;20072;-61
2021/04/23 06:37:33;;;;;;;30.52;7.68;;;12.20;60.30;;;;;;5044144;28;20028;-61
2021/04/23 06:39:59;;;;;;;39.83;6.78;;;12.20;61.00;;;;;;5043104;28;20021;-62
2021/04/23 06:42:24;;;;;;;36.47;7.80;;;12.20;60.30;;;;;;5042726;28;20564;-62
2021/04/23 06:44:50;;;;;;;35.28;6.90;;;12.20;60.20;;;;;;5042905;28;20036;-63
2021/04/23 06:47:15;;;;;;;41.65;6.18;;;12.30;60.40;;;;;;5025677;28;20411;-61
2021/04/23 06:49:41;;;;;;;56.33;8.57;;;12.20;60.40;;;;;;5043411;28;20303;-61
2021/04/23 06:52:06;;;;;;;45.97;7.75;;;12.20;60.50;;;;;;5025934;28;20564;-61
2021/04/23 06:54:32;;;;;;;44.97;7.03;;;12.10;60.60;;;;;;5041975;28;20039;-62
2021/04/23 06:56:57;;;;;;;57.45;8.70;;;12.20;60.70;;;;;;5043656;28;20049;-61
2021/04/23 06:59:23;;;;;;;69.95;8.90;;;12.20;61.00;;;;;;5042278;28;20288;-62
2021/04/23 07:01:48;;;;;;;29.83;7.40;;;12.10;61.10;;;;;;5039449;28;20287;-62
2021/04/23 07:04:14;;;;;;;49.53;8.55;;;12.20;61.10;;;;;;5042534;28;20067;-62
2021/04/23 07:06:41;;;;;;;41.88;6.82;;;12.20;61.10;;;;;;5044120;28;20044;-62
2021/04/23 07:09:07;;;;;;;51.60;9.27;;;12.20;61.00;;;;;;5024572;28;20455;-61
2021/04/23 07:11:33;;;;;;;54.70;8.15;;;12.20;61.10;;;;;;5009222;28;20132;-61
2021/04/23 07:13:58;;;;;;;41.55;7.88;;;12.10;60.80;;;;;;5024906;28;20590;-61
2021/04/23 07:16:24;;;;;;;52.78;7.95;;;12.20;60.70;;;;;;5022774;28;20453;-61
2021/04/23 07:18:49;;;;;;;51.22;7.20;;;12.10;60.70;;;;;;5039731;28;20039;-62
2021/04/23 07:21:15;;;;;;;43.83;7.20;;;12.10;60.50;;;;;;5038926;28;20196;-61
2021/04/23 07:23:40;;;;;;;44.30;7.93;;;12.10;60.50;;;;;;5039507;28;20883;-61
2021/04/23 07:26:06;;;;;;;35.53;7.10;;;12.10;60.30;;;;;;5006698;28;20045;-61
2021/04/23 07:28:32;;;;;;;56.25;8.25;;;12.20;60.30;;;;;;5041730;28;20028;-61
2021/04/23 07:30:57;;;;;;;40.25;7.38;;;12.10;60.20;;;;;;5044816;28;20040;-62
2021/04/23 07:33:23;;;;;;;29.75;7.30;;;12.10;60.20;;;;;;5042269;28;20396;-62
2021/04/23 07:35:49;;;;;;;47.70;8.18;;;12.10;60.10;;;;;;5006931;28;20623;-61
2021/04/23 07:38:14;;;;;;;28.67;6.60;;;12.10;60.20;;;;;;5006749;28;20073;-62
2021/04/23 07:40:40;;;;;;;54.72;7.93;;;12.10;60.10;;;;;;5003438;28;20111;-61
2021/04/23 07:43:05;;;;;;;41.97;7.50;;;12.10;60.20;;;;;;5023722;28;20082;-61
2021/04/23 07:45:31;;;;;;;38.17;7.18;;;12.10;60.10;;;;;;5041323;28;20501;-62
2021/04/23 07:47:57;;;;;;;38.20;6.90;;;12.10;60.00;;;;;;4999471;28;20138;-62
2021/04/23 07:50:24;;;;;;;43.65;7.22;;;12.10;60.10;;;;;;4997117;28;20041;-61
2021/04/23 07:52:51;;;;;;;44.75;7.68;;;12.10;60.20;;;;;;5001074;28;20132;-62
2021/04/23 07:55:17;;;;;;;48.85;8.23;;;12.10;60.20;;;;;;4999064;28;20048;-62
2021/04/23 07:57:42;;;;;;;40.78;7.70;;;12.10;60.20;;;;;;5003867;28;20340;-61
2021/04/23 08:00:09;;;;;;;36.67;8.13;;;12.10;60.40;;;;;;4994084;28;20597;-61
2021/04/23 08:02:35;;;;;;;39.63;8.60;;;12.20;60.30;;;;;;4970272;28;20038;-61
2021/04/23 08:05:01;;;;;;;44.40;10.00;;;12.10;60.40;;;;;;4981684;28;20092;-62
2021/04/23 08:07:26;;;;;;;29.73;7.25;;;12.20;60.50;;;;;;4987212;28;20803;-62
2021/04/23 08:09:51;;;;;;;41.15;8.50;;;12.20;60.50;;;;;;4999604;28;20659;-62
2021/04/23 08:12:17;;;;;;;39.60;7.97;;;12.20;60.50;;;;;;4997795;28;20034;-62
2021/04/23 08:14:43;;;;;;;50.88;9.80;;;12.10;60.40;;;;;;4999425;28;20213;-61
2021/04/23 08:17:08;;;;;;;43.97;8.32;;;12.20;60.60;;;;;;4988608;28;20046;-62
2021/04/23 08:19:35;;;;;;;41.28;7.80;;;12.20;60.90;;;;;;4997895;28;20026;-61
2021/04/23 08:22:01;;;;;;;37.38;7.93;;;12.20;60.70;;;;;;5001142;28;20346;-62
2021/04/23 08:24:27;;;;;;;45.45;8.52;;;12.20;60.60;;;;;;4992286;28;20093;-62
2021/04/23 08:26:52;;;;;;;47.55;7.90;;;12.20;60.60;;;;;;4996893;28;20032;-62
2021/04/23 08:29:18;;;;;;;41.35;8.32;;;12.20;60.60;;;;;;4989015;28;20347;-61
2021/04/23 08:31:44;;;;;;;41.38;8.52;;;12.20;60.70;;;;;;4995621;28;20128;-61
2021/04/23 08:34:10;;;;;;;62.42;7.88;;;12.20;60.70;;;;;;5000182;28;20449;-62
2021/04/23 08:36:36;;;;;;;43.60;7.68;;;12.20;60.90;;;;;;4982735;28;20034;-62
2021/04/23 08:39:02;;;;;;;37.92;7.95;;;12.20;60.80;;;;;;4997827;28;20030;-62
2021/04/23 08:41:28;;;;;;;30.98;7.78;;;12.20;61.80;;;;;;4995610;28;20068;-61
2021/04/23 08:43:55;;;;;;;53.25;8.18;;;12.20;60.90;;;;;;4997253;28;20667;-61
2021/04/23 08:46:20;;;;;;;54.90;8.00;;;12.20;61.00;;;;;;4983633;28;20042;-62
2021/04/23 08:48:49;;;;;;;38.75;8.48;;;12.20;61.10;;;;;;4998704;28;20076;-61
2021/04/23 08:51:16;;;;;;;63.13;9.60;;;12.30;61.40;;;;;;4967049;28;20033;-61
2021/04/23 08:53:41;;;;;;;43.17;8.40;;;12.30;61.50;;;;;;4993640;28;20069;-61
2021/04/23 08:56:07;;;;;;;36.00;7.93;;;12.30;61.60;;;;;;4992563;28;20393;-61
2021/04/23 08:58:32;;;;;;;24.38;7.57;;;12.30;61.60;;;;;;4996879;28;20050;-62
2021/04/23 09:00:58;;;;;;;27.80;7.15;;;12.30;61.80;;;;;;4988784;28;20030;-61
2021/04/23 09:03:24;;;;;;;46.78;8.18;;;12.40;61.70;;;;;;4994461;28;20441;-62
2021/04/23 09:06:06;;;;;;;33.40;8.15;;;12.40;61.90;;;;;;4991961;28;20025;-64
2021/04/23 09:08:32;;;;;;;34.72;8.02;;;12.40;61.90;;;;;;4978785;28;20600;-62
2021/04/23 09:10:57;;;;;;;47.20;8.38;;;12.40;61.90;;;;;;4975474;28;20123;-62
2021/04/23 09:13:23;;;;;;;40.83;8.52;;;12.40;62.10;;;;;;4996098;28;20033;-62
2021/04/23 09:15:48;;;;;;;39.13;8.02;;;12.40;62.10;;;;;;4997448;28;20038;-61
2021/04/23 09:18:18;;;;;;;38.33;8.27;;;12.50;62.20;;;;;;4991298;28;20026;-62
2021/04/23 09:20:46;;;;;;;34.45;9.23;;;12.50;62.50;;;;;;4992816;28;20081;-61
2021/04/23 09:23:14;;;;;;;38.60;8.68;;;12.50;62.50;;;;;;4998595;28;20029;-62
2021/04/23 09:25:48;;;;;;;42.75;8.80;;;12.50;62.60;;;;;;4965160;28;20620;-62
2021/04/23 09:28:14;;;;;;;31.55;7.93;;;12.50;62.70;;;;;;4992947;28;20030;-61
2021/04/23 09:30:40;;;;;;;39.30;8.20;;;12.60;62.70;;;;;;4980783;28;20498;-62
2021/04/23 09:33:21;;;;;;;31.58;7.50;;;12.60;62.60;;;;;;4995502;28;20034;-62
2021/04/23 09:35:46;;;;;;;38.70;9.00;;;12.60;63.40;;;;;;4981566;28;20041;-61
2021/04/23 09:38:12;;;;;;;50.15;9.27;;;12.60;62.60;;;;;;4995934;28;20036;-61
2021/04/23 09:40:38;;;;;;;38.35;8.80;;;12.70;62.70;;;;;;4982222;28;20076;-62
2021/04/23 09:43:04;;;;;;;34.45;9.20;;;12.70;62.70;;;;;;4998178;28;20518;-61
2021/04/23 09:45:34;;;;;;;63.75;11.77;;;12.70;62.70;;;;;;5000165;28;20022;-61
2021/04/23 09:48:00;;;;;;;73.00;11.65;;;12.70;62.50;;;;;;5014244;28;20800;-62
2021/04/23 09:50:30;;;;;;;42.80;10.02;;;12.70;62.40;;;;;;4998447;28;20029;-62
2021/04/23 09:52:57;;;;;;;31.30;9.13;;;12.80;62.40;;;;;;5000176;28;20021;-61
2021/04/23 09:55:27;;;;;;;46.53;10.52;;;12.80;62.20;;;;;;5009909;28;20024;-61
2021/04/23 09:58:00;;;;;;;38.97;9.00;;;12.80;62.20;;;;;;5022730;28;20025;-61
2021/04/23 10:00:28;;;;;;;31.75;7.53;;;12.90;62.30;;;;;;5025370;28;20415;-61
2021/04/23 10:02:56;;;;;;;38.53;9.80;;;12.90;62.10;;;;;;5043088;28;20492;-60
2021/04/23 10:05:31;;;;;;;52.03;10.20;;;12.90;61.90;;;;;;5042069;28;20465;-61
2021/04/23 10:07:56;;;;;;;55.35;9.25;;;12.90;61.90;;;;;;5042298;28;20029;-61
2021/04/23 10:10:22;;;;;;;52.88;8.45;;;13.00;61.90;;;;;;5043822;28;20025;-61
2021/04/23 10:12:50;;;;;;;37.03;9.07;;;13.00;61.80;;;;;;5025511;28;20490;-62
2021/04/23 10:15:23;;;;;;;41.55;9.48;;;13.00;61.70;;;;;;5039506;28;20036;-61
2021/04/23 10:17:59;;;;;;;40.88;8.10;;;13.10;61.60;;;;;;5025165;28;20429;-61
2021/04/23 10:20:33;;;;;;;51.40;9.00;;;13.10;61.40;;;;;;5009375;28;20048;-61
2021/04/23 10:23:00;;;;;;;48.92;9.38;;;13.20;61.70;;;;;;5043979;28;20079;-61
2021/04/23 10:25:25;;;;;;;50.60;8.85;;;13.20;61.40;;;;;;5004699;28;20400;-62
2021/04/23 10:27:52;;;;;;;53.65;9.57;;;13.20;61.30;;;;;;5008409;28;20329;-61
2021/04/23 10:30:19;;;;;;;48.47;9.82;;;13.30;61.20;;;;;;5023198;28;20027;-61
2021/04/23 10:32:48;;;;;;;41.15;8.40;;;13.30;60.90;;;;;;5022869;28;20639;-60
2021/04/23 10:35:14;;;;;;;43.22;9.32;;;13.30;60.50;;;;;;5026561;28;20065;-61
2021/04/23 10:37:40;;;;;;;56.75;9.02;;;13.40;60.50;;;;;;5009680;28;20059;-61
2021/04/23 10:40:07;;;;;;;57.80;10.30;;;13.40;60.40;;;;;;5024241;28;20101;-60
2021/04/23 10:42:52;;;;;;;56.83;8.95;;;13.50;60.60;;;;;;5009206;28;20025;-61
2021/04/23 10:45:26;;;;;;;45.42;9.32;;;13.50;60.00;;;;;;5023665;28;20025;-61
2021/04/23 10:47:53;;;;;;;74.57;9.98;;;13.60;60.20;;;;;;5034479;28;20037;-60
2021/04/23 10:50:21;;;;;;;50.47;8.40;;;13.60;59.90;;;;;;5020827;28;20408;-61
2021/04/23 10:52:56;;;;;;;64.70;8.43;;;13.60;59.60;;;;;;5019545;28;20743;-61
2021/04/23 10:55:22;;;;;;;60.37;9.33;;;13.70;59.50;;;;;;5037657;28;20071;-60
2021/04/23 10:57:54;;;;;;;96.10;12.93;;;13.70;59.20;;;;;;5006232;28;20124;-61
2021/04/23 11:00:37;;;;;;;57.50;8.95;;;13.90;59.00;;;;;;5021024;28;20075;-61
2021/04/23 11:03:29;;;;;;;47.05;8.90;;;13.80;58.80;;;;;;5019414;28;20087;-61
2021/04/23 11:06:07;;;;;;;55.28;8.88;;;13.90;58.80;;;;;;5018826;28;20098;-61
2021/04/23 11:08:34;;;;;;;46.05;8.13;;;13.90;59.00;;;;;;5040363;28;20037;-60
2021/04/23 11:11:00;;;;;;;48.15;7.63;;;14.00;58.80;;;;;;5041059;28;20021;-60
2021/04/23 11:13:26;;;;;;;55.00;7.68;;;14.10;58.70;;;;;;5042167;28;20025;-61
2021/04/23 11:16:20;;;;;;;56.35;8.35;;;14.10;58.30;;;;;;5005379;28;20025;-61
2021/04/23 11:18:51;;;;;;;55.00;8.60;;;14.20;58.10;;;;;;5038627;28;20025;-60
2021/04/23 11:21:35;;;;;;;59.95;8.57;;;14.30;58.00;;;;;;5017951;28;20033;-61
2021/04/23 11:24:20;;;;;;;87.68;10.35;;;14.40;57.90;;;;;;5039351;28;20017;-60
2021/04/23 11:29:26;;;;;;;80.75;12.38;;;14.50;57.50;;;;;;5041164;28;20039;-60
2021/04/23 11:32:20;;;;;;;120.07;11.18;;;14.60;57.20;;;;;;5037734;28;20563;-62
2021/04/23 11:34:49;;;;;;;63.88;8.63;;;14.70;56.50;;;;;;5035526;28;20420;-60
2021/04/23 11:37:16;;;;;;;46.58;8.38;;;14.80;56.50;;;;;;5040756;28;20039;-61
2021/04/23 11:39:44;;;;;;;56.72;9.77;;;14.90;56.30;;;;;;5040881;28;20061;-61
2021/04/23 11:42:11;;;;;;;57.17;9.43;;;15.00;55.90;;;;;;5005425;28;20013;-61
2021/04/23 11:44:53;;;;;;;52.97;8.45;;;15.10;55.40;;;;;;5020514;28;20032;-59
2021/04/23 11:47:30;;;;;;;59.38;8.57;;;15.20;55.20;;;;;;5016634;28;574723;-60
2021/04/23 11:50:20;;;;;;;88.00;10.82;;;15.30;54.90;;;;;;5026531;28;20372;-61
2021/04/23 11:52:50;;;;;;;51.05;8.98;;;15.40;55.10;;;;;;5026059;28;20037;-61
2021/04/23 11:55:27;;;;;;;57.05;8.02;;;15.40;54.30;;;;;;5022352;28;20031;-60
2021/04/23 11:58:00;;;;;;;56.60;8.75;;;15.50;53.70;;;;;;5020246;28;20033;-61
2021/04/23 12:00:27;;;;;;;46.72;6.85;;;15.60;53.10;;;;;;5030100;28;20380;-62
2021/04/23 12:02:55;;;;;;;47.05;6.65;;;15.70;52.80;;;;;;5001403;28;20218;-61
2021/04/23 12:05:26;;;;;;;43.45;6.57;;;15.80;52.40;;;;;;5002292;28;20075;-61
2021/04/23 12:07:52;;;;;;;33.92;6.13;;;15.80;51.90;;;;;;5023210;28;20112;-61
2021/04/23 12:10:18;;;;;;;43.58;7.25;;;15.90;51.70;;;;;;5019546;28;20032;-61
2021/04/23 12:12:45;;;;;;;43.70;6.95;;;16.00;51.20;;;;;;5035742;28;20330;-62
2021/04/23 12:15:31;;;;;;;39.95;6.38;;;16.10;51.40;;;;;;5029047;28;20508;-61
2021/04/23 12:17:58;;;;;;;50.78;7.10;;;16.20;51.40;;;;;;5012228;28;20079;-61
2021/04/23 12:20:26;;;;;;;51.90;7.32;;;16.20;51.30;;;;;;5013689;28;21150;-60
2021/04/23 12:22:52;;;;;;;59.05;7.20;;;16.30;51.20;;;;;;5017736;28;20079;-60
2021/04/23 12:25:17;;;;;;;54.90;8.85;;;16.40;51.20;;;;;;5032098;28;20810;-60
2021/04/23 12:27:43;;;;;;;50.10;7.60;;;16.50;51.00;;;;;;5035442;28;20060;-60
2021/04/23 12:30:09;;;;;;;60.78;8.68;;;16.60;51.00;;;;;;5032189;28;20033;-62
2021/04/23 12:32:34;;;;;;;43.28;6.65;;;16.70;50.80;;;;;;5019809;28;20086;-61
2021/04/23 12:35:00;;;;;;;29.88;6.75;;;16.80;50.70;;;;;;5017175;28;20036;-60
2021/04/23 12:37:25;;;;;;;51.97;8.05;;;16.80;50.20;;;;;;5017939;28;20439;-61
2021/04/23 12:39:51;;;;;;;44.83;7.25;;;16.90;50.40;;;;;;5027548;28;20046;-61
2021/04/23 12:42:17;;;;;;;46.85;6.78;;;16.90;49.90;;;;;;5012894;28;20014;-61